Flight Track Log - Related Links

Times and Time Zones

All times are in EDT time to prevent confusion due to time zone crossing. See the CEB806 flight status page for this flight to view local times or setup timezone preferences in your user account.

Time Position Orientation Groundspeed Altitude Reporting Facility
EDT Latitude Longitude Course Direction KTS MPH feet Rate Location/Type
Sun 06:52:05 AM 1.3239 104.0518 22° Northeast 264 304 3,900  Level FlightAware ADS-B (WSAT / TGA)
Sun 06:52:20 AM 1.3365 104.0562 North 258 297 4,600 2,250 Climbing FlightAware ADS-B (WSAT / TGA)
Sun 06:52:37 AM 1.3585 104.0542 North 258 297 5,100 1,886 Climbing FlightAware ADS-B (WSAT / TGA)
Sun 06:52:55 AM 1.3782 104.0411 323° Northwest 269 310 5,700 2,063 Climbing FlightAware ADS-B (WSAT / TGA)
Sun 06:53:09 AM 1.3938 104.0288 323° Northwest 269 310 6,200 2,400 Climbing FlightAware ADS-B (WSAT / TGA)
Sun 06:53:25 AM 1.4088 104.0167 323° Northwest 269 310 6,900 3,290 Climbing FlightAware ADS-B (WSAT / TGA)
Sun 06:53:40 AM 1.4241 104.0043 321° Northwest 263 303 7,900 3,400 Climbing FlightAware ADS-B (WSAT / TGA)
Sun 06:53:55 AM 1.4374 103.9936 322° Northwest 255 293 8,600 2,600 Climbing FlightAware ADS-B (WSAT / TGA)
Sun 06:54:10 AM 1.4514 103.9827 322° Northwest 254 292 9,200 2,400 Climbing FlightAware ADS-B (WSAT / TGA)
Sun 06:54:25 AM 1.4654 103.9719 323° Northwest 253 291 9,800 2,133 Climbing FlightAware ADS-B (WSAT / TGA)
Sun 06:54:55 AM 1.4933 103.9498 322° Northwest 260 299 10,800 1,400 Climbing FlightAware ADS-B (WSAT / TGA)
Sun 06:55:25 AM 1.5236 103.9254 321° Northwest 292 336 11,200 800 Climbing FlightAware ADS-B (WSAT / TGA)
Sun 06:55:55 AM 1.5575 103.8980 324° Northwest 321 369 11,600 600 Climbing FlightAware ADS-B (WSAT / TGA)
Sun 06:56:05 AM 1.5707 103.8915 340° North 332 382 11,600 300 Level FlightAware ADS-B (WSAT / TGA)
Sun 06:56:15 AM 1.5860 103.8884 353° North 341 392 11,700 1,600 Climbing FlightAware ADS-B (WSAT / TGA)
Sun 06:56:35 AM 1.6194 103.8874 North 349 402 12,400 2,204 Climbing FlightAware ADS-B (WSAT / TGA)
Sun 06:57:04 AM 1.6661 103.8865 359° North 347 399 13,500 1,900 Climbing FlightAware ADS-B (WSAT / TGA)
Sun 06:57:35 AM 1.7171 103.8855 359° North 356 410 14,300 1,500 Climbing FlightAware ADS-B (WSAT / TGA)
Sun 06:58:04 AM 1.7664 103.8844 359° North 366 421 15,000 1,900 Climbing FlightAware ADS-B (WSAT / TGA)
Sun 06:58:35 AM 1.8183 103.8822 359° North 362 417 16,200 1,869 Climbing FlightAware ADS-B (WSAT / TGA)
Sun 06:59:05 AM 1.8700 103.8803 358° North 368 423 16,900 1,300 Climbing FlightAware ADS-B (WSAT / TGA)
Sun 06:59:35 AM 1.9209 103.8780 358° North 377 434 17,500 1,322 Climbing FlightAware ADS-B (WSAT / TGA)
Sun 07:00:04 AM 1.9723 103.8750 357° North 384 442 18,200 1,200 Climbing FlightAware ADS-B (WSAT / TGA)
Sun 07:00:25 AM 2.0044 103.8746 North 391 450 18,500 1,161 Climbing FlightAware ADS-B (WSAT / TGA)
Sun 07:00:35 AM 2.0281 103.8813 21° North 397 457 18,800 1,714 Climbing FlightAware ADS-B (WSAT / TGA)
Sun 07:00:53 AM 2.0544 103.8987 38° Northeast 401 461 19,300 1,560 Climbing FlightAware ADS-B (WSAT / TGA)
Sun 07:01:25 AM 2.1010 103.9396 41° Northeast 403 464 20,100 2,032 Climbing FlightAware ADS-B (WSAT / TGA)
Sun 07:01:55 AM 2.1425 103.9758 40° Northeast 386 444 21,400 1,900 Climbing FlightAware ADS-B (WSAT / TGA)
Sun 07:02:25 AM 2.1837 104.0105 39° Northeast 391 450 22,000 1,300 Climbing FlightAware ADS-B (WSAT / TGA)
Sun 07:02:55 AM 2.2242 104.0433 39° Northeast 391 450 22,700 1,300 Climbing FlightAware ADS-B (WSAT / TGA)
Sun 07:03:25 AM 2.2686 104.0796 39° Northeast 396 456 23,300 1,200 Climbing FlightAware ADS-B (WSAT / TGA)
Sun 07:03:55 AM 2.3083 104.1145 46° Northeast 396 456 23,900 1,071 Climbing FlightAware ADS-B (WSAT / TGA)
Sun 07:04:21 AM 2.3360 104.1513 55° Northeast 400 460 24,300 600 Climbing FlightAware ADS-B (WSAT / TGA)
Sun 07:04:55 AM 2.3750 104.2070 55° Northeast 407 468 24,500 882 Climbing FlightAware ADS-B (WSAT / TGA)
Sun 07:06:03 AM 2.4502 104.3145 55° Northeast 416 479 25,800 1,147 Climbing FlightAware ADS-B (WSAT / TGA)
Sun 07:08:00 AM 2.5758 104.4807 53° Northeast  Level Estimated
Sun 07:09:00 AM 2.6403 104.5659 53° Northeast  Level Estimated
Sun 07:10:00 AM 2.7047 104.6512 53° Northeast  Level Estimated
Sun 07:11:00 AM 2.7691 104.7364 53° Northeast  Level Estimated
Sun 07:12:00 AM 2.8335 104.8216 53° Northeast  Level Estimated
Sun 07:13:00 AM 2.8979 104.9069 53° Northeast  Level Estimated
Sun 07:14:00 AM 2.9623 104.9922 53° Northeast  Level Estimated
Sun 07:15:00 AM 3.0267 105.0775 53° Northeast  Level Estimated
Sun 07:16:00 AM 3.0911 105.1628 53° Northeast  Level Estimated
Sun 07:17:00 AM 3.1555 105.2481 53° Northeast  Level Estimated
Sun 07:18:00 AM 3.2198 105.3334 53° Northeast  Level Estimated
Sun 07:19:00 AM 3.2842 105.4187 53° Northeast  Level Estimated
Sun 07:20:00 AM 3.3486 105.5041 53° Northeast  Level Estimated
Sun 07:21:00 AM 3.4129 105.5894 53° Northeast  Level Estimated
Sun 07:22:00 AM 3.4773 105.6748 53° Northeast  Level Estimated
Sun 07:23:00 AM 3.5416 105.7601 53° Northeast  Level Estimated
Sun 07:24:00 AM 3.6059 105.8455 53° Northeast  Level Estimated
Sun 07:25:00 AM 3.6702 105.9309 53° Northeast  Level Estimated
Sun 07:26:00 AM 3.7345 106.0163 53° Northeast  Level Estimated
Sun 07:27:00 AM 3.7989 106.1017 53° Northeast  Level Estimated
Sun 07:28:00 AM 3.8631 106.1872 53° Northeast  Level Estimated
Sun 07:29:00 AM 3.9274 106.2726 53° Northeast  Level Estimated
Sun 07:30:00 AM 3.9917 106.3581 53° Northeast  Level Estimated
Sun 07:31:00 AM 4.0560 106.4436 53° Northeast  Level Estimated
Sun 07:32:00 AM 4.1202 106.5290 53° Northeast  Level Estimated
Sun 07:33:00 AM 4.1845 106.6145 53° Northeast  Level Estimated
Sun 07:34:00 AM 4.2487 106.7001 53° Northeast  Level Estimated
Sun 07:35:00 AM 4.3130 106.7856 53° Northeast  Level Estimated
Sun 07:36:00 AM 4.3772 106.8711 53° Northeast  Level Estimated
Sun 07:37:00 AM 4.4414 106.9567 53° Northeast  Level Estimated
Sun 07:38:00 AM 4.5056 107.0423 53° Northeast  Level Estimated
Sun 07:39:00 AM 4.5698 107.1278 53° Northeast  Level Estimated
Sun 07:40:00 AM 4.6340 107.2134 53° Northeast  Level Estimated
Sun 07:41:00 AM 4.6981 107.2990 53° Northeast  Level Estimated
Sun 07:42:00 AM 4.7623 107.3847 53° Northeast  Level Estimated
Sun 07:43:00 AM 4.8264 107.4703 53° Northeast  Level Estimated
Sun 07:44:00 AM 4.8906 107.5560 53° Northeast  Level Estimated
Sun 07:45:00 AM 4.9547 107.6417 53° Northeast  Level Estimated
Sun 07:46:00 AM 5.0188 107.7274 53° Northeast  Level Estimated
Sun 07:47:00 AM 5.0829 107.8131 53° Northeast  Level Estimated
Sun 07:48:00 AM 5.1470 107.8988 53° Northeast  Level Estimated
Sun 07:49:00 AM 5.2111 107.9846 53° Northeast  Level Estimated
Sun 07:50:00 AM 5.2752 108.0704 53° Northeast  Level Estimated
Sun 07:51:00 AM 5.3392 108.1561 53° Northeast  Level Estimated
Sun 07:52:00 AM 5.4033 108.2419 53° Northeast  Level Estimated
Sun 07:53:00 AM 5.4673 108.3278 53° Northeast  Level Estimated
Sun 07:54:00 AM 5.5313 108.4136 53° Northeast  Level Estimated
Sun 07:55:00 AM 5.5953 108.4995 53° Northeast  Level Estimated
Sun 07:56:00 AM 5.6593 108.5853 53° Northeast  Level Estimated
Sun 07:57:00 AM 5.7233 108.6712 53° Northeast  Level Estimated
Sun 07:58:00 AM 5.7873 108.7571 53° Northeast  Level Estimated
Sun 07:59:00 AM 5.8513 108.8431 53° Northeast  Level Estimated
Sun 08:00:00 AM 5.9152 108.9290 53° Northeast  Level Estimated
Sun 08:01:00 AM 5.9792 109.0150 53° Northeast  Level Estimated
Sun 08:02:00 AM 6.0431 109.1010 53° Northeast  Level Estimated
Sun 08:03:00 AM 6.1070 109.1870 53° Northeast  Level Estimated
Sun 08:04:00 AM 6.1709 109.2730 53° Northeast  Level Estimated
Sun 08:05:00 AM 6.2348 109.3591 53° Northeast  Level Estimated
Sun 08:06:00 AM 6.2986 109.4452 53° Northeast  Level Estimated
Sun 08:07:00 AM 6.3625 109.5313 53° Northeast  Level Estimated
Sun 08:08:00 AM 6.4263 109.6174 53° Northeast  Level Estimated
Sun 08:09:00 AM 6.4901 109.7036 53° Northeast  Level Estimated
Sun 08:10:00 AM 6.5539 109.7897 53° Northeast  Level Estimated
Sun 08:11:00 AM 6.6177 109.8759 53° Northeast  Level Estimated
Sun 08:12:00 AM 6.6815 109.9621 53° Northeast  Level Estimated
Sun 08:13:00 AM 6.7453 110.0483 53° Northeast  Level Estimated
Sun 08:14:00 AM 6.8090 110.1346 53° Northeast  Level Estimated
Sun 08:15:00 AM 6.8728 110.2209 53° Northeast  Level Estimated
Sun 08:16:00 AM 6.9365 110.3072 53° Northeast  Level Estimated
Sun 08:17:00 AM 7.0002 110.3935 53° Northeast  Level Estimated
Sun 08:18:00 AM 7.0639 110.4798 53° Northeast  Level Estimated
Sun 08:19:00 AM 7.1275 110.5662 53° Northeast  Level Estimated
Sun 08:20:00 AM 7.1912 110.6526 53° Northeast  Level Estimated
Sun 08:21:00 AM 7.2548 110.7390 53° Northeast  Level Estimated
Sun 08:22:00 AM 7.3185 110.8254 53° Northeast  Level Estimated
Sun 08:23:00 AM 7.3821 110.9119 53° Northeast  Level Estimated
Sun 08:24:00 AM 7.4457 110.9984 53° Northeast  Level Estimated
Sun 08:25:00 AM 7.5092 111.0849 53° Northeast  Level Estimated
Sun 08:26:00 AM 7.5728 111.1715 53° Northeast  Level Estimated
Sun 08:27:00 AM 7.6363 111.2580 53° Northeast  Level Estimated
Sun 08:28:00 AM 7.6998 111.3446 53° Northeast  Level Estimated
Sun 08:29:00 AM 7.7634 111.4312 53° Northeast  Level Estimated
Sun 08:30:00 AM 7.8268 111.5179 54° Northeast  Level Estimated
Sun 08:31:00 AM 7.8903 111.6046 54° Northeast  Level Estimated
Sun 08:32:00 AM 7.9538 111.6913 54° Northeast  Level Estimated
Sun 08:33:00 AM 8.0172 111.7780 54° Northeast  Level Estimated
Sun 08:34:00 AM 8.0806 111.8647 54° Northeast  Level Estimated
Sun 08:35:00 AM 8.1440 111.9515 54° Northeast  Level Estimated
Sun 08:36:00 AM 8.2074 112.0383 54° Northeast  Level Estimated
Sun 08:37:00 AM 8.2707 112.1252 54° Northeast  Level Estimated
Sun 08:38:00 AM 8.3341 112.2120 54° Northeast  Level Estimated
Sun 08:39:00 AM 8.3974 112.2989 54° Northeast  Level Estimated
Sun 08:40:00 AM 8.4607 112.3858 54° Northeast  Level Estimated
Sun 08:41:00 AM 8.5240 112.4728 54° Northeast  Level Estimated
Sun 08:42:00 AM 8.5872 112.5598 54° Northeast  Level Estimated
Sun 08:43:00 AM 8.6505 112.6468 54° Northeast  Level Estimated
Sun 08:44:00 AM 8.7137 112.7338 54° Northeast  Level Estimated
Sun 08:45:00 AM 8.7769 112.8208 54° Northeast  Level Estimated
Sun 08:46:00 AM 8.8401 112.9080 54° Northeast  Level Estimated
Sun 08:47:00 AM 8.9033 112.9951 54° Northeast  Level Estimated
Sun 08:48:00 AM 8.9664 113.0822 54° Northeast  Level Estimated
Sun 08:49:00 AM 9.0295 113.1694 54° Northeast  Level Estimated
Sun 08:50:00 AM 9.0927 113.2566 54° Northeast  Level Estimated
Sun 08:51:00 AM 9.1557 113.3439 54° Northeast  Level Estimated
Sun 08:52:00 AM 9.2188 113.4311 54° Northeast  Level Estimated
Sun 08:53:00 AM 9.2818 113.5184 54° Northeast  Level Estimated
Sun 08:54:00 AM 9.3449 113.6058 54° Northeast  Level Estimated
Sun 08:55:00 AM 9.4079 113.6932 54° Northeast  Level Estimated
Sun 08:56:00 AM 9.4708 113.7806 54° Northeast  Level Estimated
Sun 08:57:00 AM 9.5338 113.8680 54° Northeast  Level Estimated
Sun 08:58:00 AM 9.5967 113.9555 54° Northeast  Level Estimated
Sun 08:59:00 AM 9.6596 114.0430 54° Northeast  Level Estimated
Sun 09:00:00 AM 9.7225 114.1305 54° Northeast  Level Estimated
Sun 09:01:00 AM 9.7854 114.2181 54° Northeast  Level Estimated
Sun 09:02:00 AM 9.8482 114.3057 54° Northeast  Level Estimated
Sun 09:03:00 AM 9.9111 114.3933 54° Northeast  Level Estimated
Sun 09:04:00 AM 9.9739 114.4809 54° Northeast  Level Estimated
Sun 09:05:00 AM 10.0366 114.5686 54° Northeast  Level Estimated
Sun 09:06:00 AM 10.0994 114.6564 54° Northeast  Level Estimated
Sun 09:07:00 AM 10.1621 114.7441 54° Northeast  Level Estimated
Sun 09:08:00 AM 10.2248 114.8319 54° Northeast  Level Estimated
Sun 09:09:00 AM 10.2875 114.9198 54° Northeast  Level Estimated
Sun 09:10:00 AM 10.3502 115.0077 54° Northeast  Level Estimated
Sun 09:11:00 AM 10.4128 115.0956 54° Northeast  Level Estimated
Sun 09:12:00 AM 10.4754 115.1835 54° Northeast  Level Estimated
Sun 09:13:00 AM 10.5380 115.2715 54° Northeast  Level Estimated
Sun 09:14:00 AM 10.6006 115.3595 54° Northeast  Level Estimated
Sun 09:15:00 AM 10.6631 115.4475 54° Northeast  Level Estimated
Sun 09:16:00 AM 10.7256 115.5356 54° Northeast  Level Estimated
Sun 09:17:00 AM 10.7881 115.6237 54° Northeast  Level Estimated
Sun 09:18:00 AM 10.8506 115.7119 54° Northeast  Level Estimated
Sun 09:19:00 AM 10.9130 115.8001 54° Northeast  Level Estimated
Sun 09:20:00 AM 10.9754 115.8883 54° Northeast  Level Estimated
Sun 09:21:00 AM 11.0378 115.9766 54° Northeast  Level Estimated
Sun 09:22:00 AM 11.1002 116.0649 54° Northeast  Level Estimated
Sun 09:23:00 AM 11.1625 116.1533 54° Northeast  Level Estimated
Sun 09:24:00 AM 11.2248 116.2416 54° Northeast  Level Estimated
Sun 09:25:00 AM 11.2871 116.3300 54° Northeast  Level Estimated
Sun 09:26:00 AM 11.3494 116.4185 54° Northeast  Level Estimated
Sun 09:27:00 AM 11.4116 116.5070 54° Northeast  Level Estimated
Sun 09:28:00 AM 11.4738 116.5956 54° Northeast  Level Estimated
Sun 09:29:00 AM 11.5360 116.6841 54° Northeast  Level Estimated
Sun 09:30:00 AM 11.5982 116.7727 54° Northeast  Level Estimated
Sun 09:31:00 AM 11.6603 116.8614 54° Northeast  Level Estimated
Sun 09:32:00 AM 11.7224 116.9501 54° Northeast  Level Estimated
Sun 09:33:00 AM 11.7845 117.0388 54° Northeast  Level Estimated
Sun 09:34:00 AM 11.8465 117.1276 54° Northeast  Level Estimated
Sun 09:35:00 AM 11.9085 117.2164 54° Northeast  Level Estimated
Sun 09:36:00 AM 11.9705 117.3053 54° Northeast  Level Estimated
Sun 09:37:00 AM 12.0325 117.3941 55° Northeast  Level Estimated
Sun 09:38:00 AM 12.0944 117.4831 55° Northeast  Level Estimated
Sun 09:39:00 AM 12.1563 117.5721 55° Northeast  Level Estimated
Sun 09:40:00 AM 12.2182 117.6611 55° Northeast  Level Estimated
Sun 09:41:00 AM 12.2800 117.7501 55° Northeast  Level Estimated
Sun 09:42:00 AM 12.3419 117.8392 55° Northeast  Level Estimated
Sun 09:43:00 AM 12.4036 117.9284 55° Northeast  Level Estimated
Sun 09:44:00 AM 12.4654 118.0176 55° Northeast  Level Estimated
Sun 09:45:00 AM 12.5271 118.1068 55° Northeast  Level Estimated
Sun 09:46:00 AM 12.5888 118.1961 55° Northeast  Level Estimated
Sun 09:47:00 AM 12.6505 118.2854 55° Northeast  Level Estimated
Sun 09:48:00 AM 12.7121 118.3747 55° Northeast  Level Estimated
Sun 09:49:00 AM 12.7738 118.4641 55° Northeast  Level Estimated
Sun 09:50:00 AM 12.8354 118.5536 55° Northeast  Level Estimated
Sun 09:51:00 AM 12.8969 118.6431 55° Northeast  Level Estimated
Sun 09:52:00 AM 12.9584 118.7326 55° Northeast  Level Estimated
Sun 09:53:00 AM 13.0199 118.8222 55° Northeast  Level Estimated
Sun 09:54:00 AM 13.0814 118.9118 55° Northeast  Level Estimated
Sun 09:55:00 AM 13.1428 119.0015 55° Northeast  Level Estimated
Sun 09:56:00 AM 13.2042 119.0912 55° Northeast  Level Estimated
Sun 09:57:00 AM 13.2656 119.1809 55° Northeast  Level Estimated
Sun 09:58:00 AM 13.3269 119.2708 55° Northeast  Level Estimated
Sun 09:59:00 AM 13.3882 119.3606 55° Northeast  Level Estimated
Sun 10:00:00 AM 13.4495 119.4505 55° Northeast  Level Estimated
Sun 10:01:00 AM 13.5107 119.5404 55° Northeast  Level Estimated
Sun 10:02:00 AM 13.5719 119.6304 55° Northeast  Level Estimated
Sun 10:03:00 AM 13.6331 119.7204 55° Northeast  Level Estimated
Sun 10:04:00 AM 13.6943 119.8105 55° Northeast  Level Estimated
Sun 10:05:00 AM 13.7554 119.9006 55° Northeast  Level Estimated
Sun 10:06:00 AM 13.8165 119.9908 55° Northeast  Level Estimated
Sun 10:07:00 AM 13.8775 120.0810 55° Northeast  Level Estimated
Sun 10:08:00 AM 13.9385 120.1713 55° Northeast  Level Estimated
Sun 10:09:00 AM 13.9995 120.2616 55° Northeast  Level Estimated
Sun 10:10:00 AM 14.0604 120.3520 55° Northeast  Level Estimated
Sun 10:11:00 AM 14.1213 120.4424 55° Northeast  Level Estimated
Sun 10:12:00 AM 14.1822 120.5328 55° Northeast  Level Estimated
Sun 10:13:00 AM 14.2431 120.6234 55° Northeast  Level Estimated
Sun 10:14:00 AM 14.3039 120.7139 55° Northeast  Level Estimated
Sun 10:15:00 AM 14.3646 120.8045 55° Northeast  Level Estimated

Login

Don't have an account? Register now (free) for customized features, flight alerts, and more!